Terminal Aerodrome Forecast
Issued by NWS

Current Version | Previous Version | Text Only | Print | Product List | Glossary On
Versions: 1 2 3 4 5 6 7 8 9 10 11 12 13 14
000
FTPA31 PHFO 232333
TAFHJR
TAF
PHJR 232333Z 2400/2424 11011G18KT P6SM FEW025 SCT045
     FM240600 12006KT P6SM SCT025 BKN040
     FM242000 11011G18KT P6SM SCT025 SCT045=

USA.gov is the U.S. government's official web portal to all federal, state and local government web resources and services.